sensor_id;sensor_type;location;lat;lon;timestamp;P1;durP1;ratioP1;P2;durP2;ratioP2
51485;SDS011;37565;51.352;6.412;2022-10-14T00:00:35;1.20;;;1.00;;
51485;SDS011;37565;51.352;6.412;2022-10-14T00:03:03;1.48;;;1.33;;
51485;SDS011;37565;51.352;6.412;2022-10-14T00:05:31;1.15;;;1.10;;
51485;SDS011;37565;51.352;6.412;2022-10-14T00:07:59;1.30;;;1.20;;
51485;SDS011;37565;51.352;6.412;2022-10-14T00:10:27;1.50;;;1.30;;
51485;SDS011;37565;51.352;6.412;2022-10-14T00:12:56;1.40;;;1.30;;
51485;SDS011;37565;51.352;6.412;2022-10-14T00:15:24;1.02;;;1.00;;
51485;SDS011;37565;51.352;6.412;2022-10-14T00:17:52;1.40;;;1.30;;
51485;SDS011;37565;51.352;6.412;2022-10-14T00:20:20;1.50;;;1.30;;
51485;SDS011;37565;51.352;6.412;2022-10-14T00:22:48;1.30;;;1.20;;
51485;SDS011;37565;51.352;6.412;2022-10-14T00:25:16;1.30;;;1.20;;
51485;SDS011;37565;51.352;6.412;2022-10-14T00:27:44;1.13;;;1.08;;
51485;SDS011;37565;51.352;6.412;2022-10-14T00:30:13;1.20;;;1.10;;
51485;SDS011;37565;51.352;6.412;2022-10-14T00:32:41;1.23;;;1.13;;
51485;SDS011;37565;51.352;6.412;2022-10-14T00:35:09;1.45;;;1.10;;
51485;SDS011;37565;51.352;6.412;2022-10-14T00:37:37;1.88;;;1.17;;
51485;SDS011;37565;51.352;6.412;2022-10-14T00:40:05;1.30;;;1.20;;
51485;SDS011;37565;51.352;6.412;2022-10-14T00:42:34;1.10;;;1.00;;
51485;SDS011;37565;51.352;6.412;2022-10-14T00:45:04;1.52;;;1.20;;
51485;SDS011;37565;51.352;6.412;2022-10-14T00:47:35;1.55;;;1.30;;
51485;SDS011;37565;51.352;6.412;2022-10-14T00:50:04;1.20;;;1.10;;
51485;SDS011;37565;51.352;6.412;2022-10-14T00:52:32;1.58;;;1.30;;
51485;SDS011;37565;51.352;6.412;2022-10-14T00:55:01;1.23;;;1.13;;
51485;SDS011;37565;51.352;6.412;2022-10-14T00:57:31;1.10;;;1.10;;
51485;SDS011;37565;51.352;6.412;2022-10-14T01:00:00;1.20;;;1.13;;
51485;SDS011;37565;51.352;6.412;2022-10-14T01:02:31;1.20;;;1.10;;
51485;SDS011;37565;51.352;6.412;2022-10-14T01:05:01;0.90;;;0.90;;
51485;SDS011;37565;51.352;6.412;2022-10-14T01:07:33;1.27;;;1.17;;
51485;SDS011;37565;51.352;6.412;2022-10-14T01:10:08;1.35;;;1.25;;
51485;SDS011;37565;51.352;6.412;2022-10-14T01:12:48;1.05;;;1.02;;
51485;SDS011;37565;51.352;6.412;2022-10-14T01:15:29;2.35;;;1.35;;
51485;SDS011;37565;51.352;6.412;2022-10-14T01:18:07;1.95;;;1.17;;
51485;SDS011;37565;51.352;6.412;2022-10-14T01:24:00;1.23;;;1.13;;
51485;SDS011;37565;51.352;6.412;2022-10-14T01:29:43;1.20;;;1.10;;
51485;SDS011;37565;51.352;6.412;2022-10-14T01:32:24;1.00;;;1.00;;
51485;SDS011;37565;51.352;6.412;2022-10-14T01:34:57;1.40;;;1.30;;
51485;SDS011;37565;51.352;6.412;2022-10-14T01:37:29;1.20;;;1.10;;
51485;SDS011;37565;51.352;6.412;2022-10-14T01:40:02;1.17;;;1.08;;
51485;SDS011;37565;51.352;6.412;2022-10-14T01:42:35;1.23;;;1.13;;
51485;SDS011;37565;51.352;6.412;2022-10-14T01:45:09;1.00;;;0.98;;
51485;SDS011;37565;51.352;6.412;2022-10-14T01:47:41;1.13;;;1.02;;
51485;SDS011;37565;51.352;6.412;2022-10-14T01:50:12;1.27;;;1.17;;
51485;SDS011;37565;51.352;6.412;2022-10-14T01:52:43;1.25;;;1.10;;
51485;SDS011;37565;51.352;6.412;2022-10-14T01:55:16;1.77;;;1.10;;
51485;SDS011;37565;51.352;6.412;2022-10-14T01:57:47;1.30;;;1.20;;
51485;SDS011;37565;51.352;6.412;2022-10-14T02:00:20;1.20;;;1.10;;
51485;SDS011;37565;51.352;6.412;2022-10-14T02:02:48;1.25;;;1.15;;
51485;SDS011;37565;51.352;6.412;2022-10-14T02:05:17;1.17;;;1.08;;
51485;SDS011;37565;51.352;6.412;2022-10-14T02:07:49;1.30;;;1.20;;
51485;SDS011;37565;51.352;6.412;2022-10-14T02:10:24;1.17;;;1.08;;
51485;SDS011;37565;51.352;6.412;2022-10-14T02:13:04;1.25;;;1.15;;
51485;SDS011;37565;51.352;6.412;2022-10-14T02:15:44;1.30;;;1.20;;
51485;SDS011;37565;51.352;6.412;2022-10-14T02:18:21;1.42;;;1.02;;
51485;SDS011;37565;51.352;6.412;2022-10-14T02:20:53;1.17;;;1.08;;
51485;SDS011;37565;51.352;6.412;2022-10-14T02:23:24;1.20;;;1.10;;
51485;SDS011;37565;51.352;6.412;2022-10-14T02:25:56;1.15;;;1.02;;
51485;SDS011;37565;51.352;6.412;2022-10-14T02:28:26;1.20;;;1.00;;
51485;SDS011;37565;51.352;6.412;2022-10-14T02:30:57;1.20;;;1.10;;
51485;SDS011;37565;51.352;6.412;2022-10-14T02:33:27;2.00;;;1.50;;
51485;SDS011;37565;51.352;6.412;2022-10-14T02:35:59;1.33;;;1.23;;
51485;SDS011;37565;51.352;6.412;2022-10-14T02:38:28;1.15;;;1.05;;
51485;SDS011;37565;51.352;6.412;2022-10-14T02:40:58;1.13;;;1.02;;
51485;SDS011;37565;51.352;6.412;2022-10-14T02:43:29;2.45;;;1.30;;
51485;SDS011;37565;51.352;6.412;2022-10-14T02:45:59;1.30;;;1.20;;
51485;SDS011;37565;51.352;6.412;2022-10-14T02:48:29;1.10;;;1.00;;
51485;SDS011;37565;51.352;6.412;2022-10-14T02:50:57;1.05;;;0.95;;
51485;SDS011;37565;51.352;6.412;2022-10-14T02:53:24;2.03;;;1.73;;
51485;SDS011;37565;51.352;6.412;2022-10-14T02:55:52;1.08;;;1.00;;
51485;SDS011;37565;51.352;6.412;2022-10-14T02:58:20;1.20;;;1.10;;
51485;SDS011;37565;51.352;6.412;2022-10-14T03:00:48;1.20;;;1.10;;
51485;SDS011;37565;51.352;6.412;2022-10-14T03:03:18;1.80;;;1.17;;
51485;SDS011;37565;51.352;6.412;2022-10-14T03:05:47;1.15;;;0.98;;
51485;SDS011;37565;51.352;6.412;2022-10-14T03:08:15;1.27;;;1.17;;
51485;SDS011;37565;51.352;6.412;2022-10-14T03:10:44;1.75;;;1.17;;
51485;SDS011;37565;51.352;6.412;2022-10-14T03:13:13;1.23;;;1.13;;
51485;SDS011;37565;51.352;6.412;2022-10-14T03:15:41;1.10;;;1.10;;
51485;SDS011;37565;51.352;6.412;2022-10-14T03:18:09;1.30;;;1.10;;
51485;SDS011;37565;51.352;6.412;2022-10-14T03:20:38;1.30;;;1.20;;
51485;SDS011;37565;51.352;6.412;2022-10-14T03:23:06;1.35;;;1.20;;
51485;SDS011;37565;51.352;6.412;2022-10-14T03:25:34;1.10;;;1.00;;
51485;SDS011;37565;51.352;6.412;2022-10-14T03:28:02;1.10;;;1.00;;
51485;SDS011;37565;51.352;6.412;2022-10-14T03:30:30;1.23;;;1.13;;
51485;SDS011;37565;51.352;6.412;2022-10-14T03:32:58;1.15;;;1.13;;
51485;SDS011;37565;51.352;6.412;2022-10-14T03:35:26;1.10;;;1.10;;
51485;SDS011;37565;51.352;6.412;2022-10-14T03:37:55;1.20;;;1.10;;
51485;SDS011;37565;51.352;6.412;2022-10-14T03:40:27;1.50;;;1.00;;
51485;SDS011;37565;51.352;6.412;2022-10-14T03:42:56;1.08;;;0.98;;
51485;SDS011;37565;51.352;6.412;2022-10-14T03:45:26;0.75;;;0.75;;
51485;SDS011;37565;51.352;6.412;2022-10-14T03:47:54;1.05;;;0.93;;
51485;SDS011;37565;51.352;6.412;2022-10-14T03:50:22;1.20;;;1.10;;
51485;SDS011;37565;51.352;6.412;2022-10-14T03:52:50;1.02;;;0.93;;
51485;SDS011;37565;51.352;6.412;2022-10-14T03:55:22;2.15;;;1.10;;
51485;SDS011;37565;51.352;6.412;2022-10-14T03:57:50;1.33;;;1.20;;
51485;SDS011;37565;51.352;6.412;2022-10-14T04:00:18;1.10;;;1.10;;
51485;SDS011;37565;51.352;6.412;2022-10-14T04:02:47;1.30;;;1.20;;
51485;SDS011;37565;51.352;6.412;2022-10-14T04:05:14;0.90;;;0.90;;
51485;SDS011;37565;51.352;6.412;2022-10-14T04:07:42;0.90;;;0.90;;
51485;SDS011;37565;51.352;6.412;2022-10-14T04:10:10;1.92;;;0.90;;
51485;SDS011;37565;51.352;6.412;2022-10-14T04:12:39;1.05;;;1.05;;
51485;SDS011;37565;51.352;6.412;2022-10-14T04:15:09;1.25;;;1.15;;
51485;SDS011;37565;51.352;6.412;2022-10-14T04:17:37;1.27;;;1.17;;
51485;SDS011;37565;51.352;6.412;2022-10-14T04:20:05;1.05;;;1.00;;
51485;SDS011;37565;51.352;6.412;2022-10-14T04:22:33;1.20;;;1.10;;
51485;SDS011;37565;51.352;6.412;2022-10-14T04:25:01;0.95;;;0.95;;
51485;SDS011;37565;51.352;6.412;2022-10-14T04:27:29;1.30;;;1.20;;
51485;SDS011;37565;51.352;6.412;2022-10-14T04:29:58;1.30;;;1.20;;
51485;SDS011;37565;51.352;6.412;2022-10-14T04:32:26;1.30;;;1.20;;
51485;SDS011;37565;51.352;6.412;2022-10-14T04:34:54;1.48;;;1.27;;
51485;SDS011;37565;51.352;6.412;2022-10-14T04:37:22;0.73;;;0.73;;
51485;SDS011;37565;51.352;6.412;2022-10-14T04:39:50;1.23;;;1.05;;
51485;SDS011;37565;51.352;6.412;2022-10-14T04:42:18;2.10;;;1.23;;
51485;SDS011;37565;51.352;6.412;2022-10-14T04:44:46;1.30;;;1.20;;
51485;SDS011;37565;51.352;6.412;2022-10-14T04:47:17;0.93;;;0.90;;
51485;SDS011;37565;51.352;6.412;2022-10-14T04:49:45;1.13;;;1.02;;
51485;SDS011;37565;51.352;6.412;2022-10-14T04:52:13;1.00;;;0.90;;
51485;SDS011;37565;51.352;6.412;2022-10-14T04:54:41;1.25;;;1.15;;
51485;SDS011;37565;51.352;6.412;2022-10-14T04:57:09;1.20;;;0.93;;
51485;SDS011;37565;51.352;6.412;2022-10-14T04:59:37;2.47;;;1.13;;
51485;SDS011;37565;51.352;6.412;2022-10-14T05:02:05;1.30;;;1.20;;
51485;SDS011;37565;51.352;6.412;2022-10-14T05:04:34;1.30;;;1.20;;
51485;SDS011;37565;51.352;6.412;2022-10-14T05:07:02;1.00;;;1.00;;
51485;SDS011;37565;51.352;6.412;2022-10-14T05:09:30;1.00;;;0.90;;
51485;SDS011;37565;51.352;6.412;2022-10-14T05:11:58;0.90;;;0.90;;
51485;SDS011;37565;51.352;6.412;2022-10-14T05:14:26;0.98;;;0.98;;
51485;SDS011;37565;51.352;6.412;2022-10-14T05:16:54;1.00;;;0.90;;
51485;SDS011;37565;51.352;6.412;2022-10-14T05:19:22;1.27;;;1.10;;
51485;SDS011;37565;51.352;6.412;2022-10-14T05:21:52;1.05;;;0.95;;
51485;SDS011;37565;51.352;6.412;2022-10-14T05:24:20;1.10;;;1.00;;
51485;SDS011;37565;51.352;6.412;2022-10-14T05:26:48;0.85;;;0.85;;
51485;SDS011;37565;51.352;6.412;2022-10-14T05:29:16;1.23;;;1.13;;
51485;SDS011;37565;51.352;6.412;2022-10-14T05:31:44;1.00;;;0.90;;
51485;SDS011;37565;51.352;6.412;2022-10-14T05:34:12;0.73;;;0.73;;
51485;SDS011;37565;51.352;6.412;2022-10-14T05:36:40;1.15;;;1.05;;
51485;SDS011;37565;51.352;6.412;2022-10-14T05:39:09;1.15;;;1.08;;
51485;SDS011;37565;51.352;6.412;2022-10-14T05:41:37;1.15;;;1.05;;
51485;SDS011;37565;51.352;6.412;2022-10-14T05:44:05;1.10;;;1.02;;
51485;SDS011;37565;51.352;6.412;2022-10-14T05:46:33;1.00;;;0.80;;
51485;SDS011;37565;51.352;6.412;2022-10-14T05:49:01;1.88;;;0.90;;
51485;SDS011;37565;51.352;6.412;2022-10-14T05:51:31;0.98;;;0.88;;
51485;SDS011;37565;51.352;6.412;2022-10-14T05:54:00;1.05;;;0.95;;
51485;SDS011;37565;51.352;6.412;2022-10-14T05:56:29;1.10;;;1.00;;
51485;SDS011;37565;51.352;6.412;2022-10-14T05:58:57;0.80;;;0.80;;
51485;SDS011;37565;51.352;6.412;2022-10-14T06:01:25;1.00;;;0.95;;
51485;SDS011;37565;51.352;6.412;2022-10-14T06:03:53;1.00;;;0.90;;
51485;SDS011;37565;51.352;6.412;2022-10-14T06:06:20;1.25;;;1.15;;
51485;SDS011;37565;51.352;6.412;2022-10-14T06:08:54;1.13;;;1.02;;
51485;SDS011;37565;51.352;6.412;2022-10-14T06:11:22;1.00;;;0.95;;
51485;SDS011;37565;51.352;6.412;2022-10-14T06:13:52;0.73;;;0.73;;
51485;SDS011;37565;51.352;6.412;2022-10-14T06:16:20;1.08;;;1.00;;
51485;SDS011;37565;51.352;6.412;2022-10-14T06:18:48;0.80;;;0.80;;
51485;SDS011;37565;51.352;6.412;2022-10-14T06:21:19;1.20;;;1.00;;
51485;SDS011;37565;51.352;6.412;2022-10-14T06:23:47;0.88;;;0.88;;
51485;SDS011;37565;51.352;6.412;2022-10-14T06:26:15;2.17;;;0.90;;
51485;SDS011;37565;51.352;6.412;2022-10-14T06:28:43;0.90;;;0.90;;
51485;SDS011;37565;51.352;6.412;2022-10-14T06:31:13;0.77;;;0.77;;
51485;SDS011;37565;51.352;6.412;2022-10-14T06:33:41;0.95;;;0.90;;
51485;SDS011;37565;51.352;6.412;2022-10-14T06:36:10;1.10;;;0.85;;
51485;SDS011;37565;51.352;6.412;2022-10-14T06:38:38;1.10;;;1.00;;
51485;SDS011;37565;51.352;6.412;2022-10-14T06:41:06;0.90;;;0.90;;
51485;SDS011;37565;51.352;6.412;2022-10-14T06:43:34;1.13;;;1.00;;
51485;SDS011;37565;51.352;6.412;2022-10-14T06:46:02;1.02;;;0.95;;
51485;SDS011;37565;51.352;6.412;2022-10-14T06:48:32;0.80;;;0.80;;
51485;SDS011;37565;51.352;6.412;2022-10-14T06:51:00;0.80;;;0.80;;
51485;SDS011;37565;51.352;6.412;2022-10-14T06:53:28;1.05;;;1.00;;
51485;SDS011;37565;51.352;6.412;2022-10-14T06:55:57;0.93;;;0.90;;
51485;SDS011;37565;51.352;6.412;2022-10-14T06:58:26;1.00;;;1.00;;
51485;SDS011;37565;51.352;6.412;2022-10-14T07:00:54;0.90;;;0.80;;
51485;SDS011;37565;51.352;6.412;2022-10-14T07:03:27;1.20;;;1.10;;
51485;SDS011;37565;51.352;6.412;2022-10-14T07:05:56;1.20;;;1.10;;
51485;SDS011;37565;51.352;6.412;2022-10-14T07:08:24;0.80;;;0.80;;
51485;SDS011;37565;51.352;6.412;2022-10-14T07:10:52;0.85;;;0.85;;
51485;SDS011;37565;51.352;6.412;2022-10-14T07:13:20;1.17;;;1.10;;
51485;SDS011;37565;51.352;6.412;2022-10-14T07:15:48;1.02;;;0.93;;
51485;SDS011;37565;51.352;6.412;2022-10-14T07:18:17;0.70;;;0.70;;
51485;SDS011;37565;51.352;6.412;2022-10-14T07:20:45;0.80;;;0.80;;
51485;SDS011;37565;51.352;6.412;2022-10-14T07:23:15;0.82;;;0.82;;
51485;SDS011;37565;51.352;6.412;2022-10-14T07:25:43;1.13;;;0.80;;
51485;SDS011;37565;51.352;6.412;2022-10-14T07:28:11;1.13;;;1.02;;
51485;SDS011;37565;51.352;6.412;2022-10-14T07:30:39;1.05;;;1.05;;
51485;SDS011;37565;51.352;6.412;2022-10-14T07:33:06;0.95;;;0.80;;
51485;SDS011;37565;51.352;6.412;2022-10-14T07:35:36;1.05;;;0.95;;
51485;SDS011;37565;51.352;6.412;2022-10-14T07:38:04;0.75;;;0.75;;
51485;SDS011;37565;51.352;6.412;2022-10-14T07:40:33;0.98;;;0.85;;
51485;SDS011;37565;51.352;6.412;2022-10-14T07:43:01;0.93;;;0.93;;
51485;SDS011;37565;51.352;6.412;2022-10-14T07:45:29;0.90;;;0.77;;
51485;SDS011;37565;51.352;6.412;2022-10-14T07:48:00;0.80;;;0.80;;
51485;SDS011;37565;51.352;6.412;2022-10-14T07:50:29;1.00;;;0.90;;
51485;SDS011;37565;51.352;6.412;2022-10-14T07:52:57;1.08;;;0.90;;
51485;SDS011;37565;51.352;6.412;2022-10-14T07:55:26;1.20;;;1.10;;
51485;SDS011;37565;51.352;6.412;2022-10-14T07:57:56;1.17;;;1.05;;
51485;SDS011;37565;51.352;6.412;2022-10-14T08:00:24;1.13;;;1.02;;
51485;SDS011;37565;51.352;6.412;2022-10-14T08:02:52;0.90;;;0.90;;
51485;SDS011;37565;51.352;6.412;2022-10-14T08:05:20;0.98;;;0.98;;
51485;SDS011;37565;51.352;6.412;2022-10-14T08:08:04;0.80;;;0.80;;
51485;SDS011;37565;51.352;6.412;2022-10-14T08:10:32;1.00;;;0.90;;
51485;SDS011;37565;51.352;6.412;2022-10-14T08:13:01;0.85;;;0.85;;
51485;SDS011;37565;51.352;6.412;2022-10-14T08:15:31;0.90;;;0.90;;
51485;SDS011;37565;51.352;6.412;2022-10-14T08:18:00;0.90;;;0.80;;
51485;SDS011;37565;51.352;6.412;2022-10-14T08:20:28;0.88;;;0.88;;
51485;SDS011;37565;51.352;6.412;2022-10-14T08:22:56;1.05;;;0.95;;
51485;SDS011;37565;51.352;6.412;2022-10-14T08:25:23;1.00;;;0.82;;
51485;SDS011;37565;51.352;6.412;2022-10-14T08:27:52;0.70;;;0.70;;
51485;SDS011;37565;51.352;6.412;2022-10-14T08:30:23;0.80;;;0.80;;
51485;SDS011;37565;51.352;6.412;2022-10-14T08:32:51;0.80;;;0.80;;
51485;SDS011;37565;51.352;6.412;2022-10-14T08:35:20;0.70;;;0.70;;
51485;SDS011;37565;51.352;6.412;2022-10-14T08:37:54;0.98;;;0.77;;
51485;SDS011;37565;51.352;6.412;2022-10-14T08:42:53;1.10;;;1.00;;
51485;SDS011;37565;51.352;6.412;2022-10-14T08:45:31;0.80;;;0.80;;
51485;SDS011;37565;51.352;6.412;2022-10-14T08:48:03;1.00;;;1.00;;
51485;SDS011;37565;51.352;6.412;2022-10-14T08:50:40;1.08;;;1.00;;
51485;SDS011;37565;51.352;6.412;2022-10-14T08:53:14;0.85;;;0.85;;
51485;SDS011;37565;51.352;6.412;2022-10-14T08:55:45;0.75;;;0.75;;
51485;SDS011;37565;51.352;6.412;2022-10-14T08:58:16;0.77;;;0.77;;
51485;SDS011;37565;51.352;6.412;2022-10-14T09:00:50;0.70;;;0.70;;
51485;SDS011;37565;51.352;6.412;2022-10-14T09:03:20;1.00;;;0.90;;
51485;SDS011;37565;51.352;6.412;2022-10-14T09:05:52;0.90;;;0.90;;
51485;SDS011;37565;51.352;6.412;2022-10-14T09:08:26;0.75;;;0.75;;
51485;SDS011;37565;51.352;6.412;2022-10-14T09:10:58;0.93;;;0.85;;
51485;SDS011;37565;51.352;6.412;2022-10-14T09:13:27;0.70;;;0.70;;
51485;SDS011;37565;51.352;6.412;2022-10-14T09:16:02;0.70;;;0.70;;
51485;SDS011;37565;51.352;6.412;2022-10-14T09:18:35;1.23;;;1.10;;
51485;SDS011;37565;51.352;6.412;2022-10-14T09:21:17;0.75;;;0.70;;
51485;SDS011;37565;51.352;6.412;2022-10-14T09:24:11;0.70;;;0.70;;
51485;SDS011;37565;51.352;6.412;2022-10-14T09:26:41;0.85;;;0.85;;
51485;SDS011;37565;51.352;6.412;2022-10-14T09:29:15;0.95;;;0.90;;
51485;SDS011;37565;51.352;6.412;2022-10-14T09:31:51;0.80;;;0.80;;
51485;SDS011;37565;51.352;6.412;2022-10-14T09:34:23;1.65;;;0.93;;
51485;SDS011;37565;51.352;6.412;2022-10-14T09:36:57;0.93;;;0.80;;
51485;SDS011;37565;51.352;6.412;2022-10-14T09:39:32;0.77;;;0.77;;
51485;SDS011;37565;51.352;6.412;2022-10-14T09:42:04;0.98;;;0.80;;
51485;SDS011;37565;51.352;6.412;2022-10-14T09:44:39;1.15;;;1.05;;
51485;SDS011;37565;51.352;6.412;2022-10-14T09:47:09;0.90;;;0.90;;
51485;SDS011;37565;51.352;6.412;2022-10-14T09:49:44;0.80;;;0.77;;
51485;SDS011;37565;51.352;6.412;2022-10-14T09:52:19;0.80;;;0.80;;
51485;SDS011;37565;51.352;6.412;2022-10-14T09:54:52;1.05;;;0.90;;
51485;SDS011;37565;51.352;6.412;2022-10-14T09:57:21;1.02;;;0.95;;
51485;SDS011;37565;51.352;6.412;2022-10-14T09:59:52;0.90;;;0.90;;
51485;SDS011;37565;51.352;6.412;2022-10-14T10:02:34;0.73;;;0.73;;
51485;SDS011;37565;51.352;6.412;2022-10-14T10:05:10;0.77;;;0.77;;
51485;SDS011;37565;51.352;6.412;2022-10-14T10:07:39;0.55;;;0.55;;
51485;SDS011;37565;51.352;6.412;2022-10-14T10:10:15;1.13;;;1.02;;
51485;SDS011;37565;51.352;6.412;2022-10-14T10:12:46;0.73;;;0.73;;
51485;SDS011;37565;51.352;6.412;2022-10-14T10:15:16;0.70;;;0.70;;
51485;SDS011;37565;51.352;6.412;2022-10-14T10:17:47;0.70;;;0.70;;
51485;SDS011;37565;51.352;6.412;2022-10-14T10:20:20;0.77;;;0.77;;
51485;SDS011;37565;51.352;6.412;2022-10-14T10:22:57;0.70;;;0.70;;
51485;SDS011;37565;51.352;6.412;2022-10-14T10:28:14;0.70;;;0.70;;
51485;SDS011;37565;51.352;6.412;2022-10-14T10:30:47;0.82;;;0.82;;
51485;SDS011;37565;51.352;6.412;2022-10-14T10:33:29;0.82;;;0.82;;
51485;SDS011;37565;51.352;6.412;2022-10-14T10:36:07;0.70;;;0.70;;
51485;SDS011;37565;51.352;6.412;2022-10-14T10:38:51;0.88;;;0.85;;
51485;SDS011;37565;51.352;6.412;2022-10-14T10:41:31;0.73;;;0.73;;
51485;SDS011;37565;51.352;6.412;2022-10-14T10:44:19;0.98;;;0.98;;
51485;SDS011;37565;51.352;6.412;2022-10-14T10:50:17;0.95;;;0.90;;
51485;SDS011;37565;51.352;6.412;2022-10-14T10:55:57;1.00;;;0.90;;
51485;SDS011;37565;51.352;6.412;2022-10-14T10:58:43;1.45;;;0.90;;
51485;SDS011;37565;51.352;6.412;2022-10-14T11:01:23;0.65;;;0.65;;
51485;SDS011;37565;51.352;6.412;2022-10-14T11:04:06;1.45;;;0.80;;
51485;SDS011;37565;51.352;6.412;2022-10-14T11:06:50;0.70;;;0.70;;
51485;SDS011;37565;51.352;6.412;2022-10-14T11:09:47;0.63;;;0.63;;
51485;SDS011;37565;51.352;6.412;2022-10-14T11:12:41;0.77;;;0.73;;
51485;SDS011;37565;51.352;6.412;2022-10-14T11:15:32;0.60;;;0.60;;
51485;SDS011;37565;51.352;6.412;2022-10-14T11:18:11;0.77;;;0.77;;
51485;SDS011;37565;51.352;6.412;2022-10-14T11:20:49;0.82;;;0.82;;
51485;SDS011;37565;51.352;6.412;2022-10-14T11:23:32;0.73;;;0.65;;
51485;SDS011;37565;51.352;6.412;2022-10-14T11:26:08;0.73;;;0.73;;
51485;SDS011;37565;51.352;6.412;2022-10-14T11:28:48;0.93;;;0.80;;
51485;SDS011;37565;51.352;6.412;2022-10-14T11:31:25;0.80;;;0.70;;
51485;SDS011;37565;51.352;6.412;2022-10-14T11:34:05;0.77;;;0.77;;
51485;SDS011;37565;51.352;6.412;2022-10-14T11:36:44;1.10;;;1.00;;
51485;SDS011;37565;51.352;6.412;2022-10-14T11:39:30;0.70;;;0.70;;
51485;SDS011;37565;51.352;6.412;2022-10-14T11:42:12;0.60;;;0.60;;
51485;SDS011;37565;51.352;6.412;2022-10-14T11:44:57;0.93;;;0.93;;
51485;SDS011;37565;51.352;6.412;2022-10-14T11:47:36;0.80;;;0.80;;
51485;SDS011;37565;51.352;6.412;2022-10-14T11:50:11;0.93;;;0.80;;
51485;SDS011;37565;51.352;6.412;2022-10-14T11:52:45;0.77;;;0.77;;
51485;SDS011;37565;51.352;6.412;2022-10-14T11:55:21;0.60;;;0.60;;
51485;SDS011;37565;51.352;6.412;2022-10-14T11:57:51;0.68;;;0.68;;
51485;SDS011;37565;51.352;6.412;2022-10-14T12:00:24;0.68;;;0.68;;
51485;SDS011;37565;51.352;6.412;2022-10-14T12:03:15;0.80;;;0.80;;
51485;SDS011;37565;51.352;6.412;2022-10-14T12:05:48;1.35;;;1.00;;
51485;SDS011;37565;51.352;6.412;2022-10-14T12:08:25;0.80;;;0.80;;
51485;SDS011;37565;51.352;6.412;2022-10-14T12:11:03;0.68;;;0.68;;
51485;SDS011;37565;51.352;6.412;2022-10-14T12:13:36;1.10;;;0.68;;
51485;SDS011;37565;51.352;6.412;2022-10-14T12:16:08;0.70;;;0.70;;
51485;SDS011;37565;51.352;6.412;2022-10-14T12:18:40;0.70;;;0.70;;
51485;SDS011;37565;51.352;6.412;2022-10-14T12:21:11;0.68;;;0.68;;
51485;SDS011;37565;51.352;6.412;2022-10-14T12:23:44;0.60;;;0.60;;
51485;SDS011;37565;51.352;6.412;2022-10-14T12:26:22;0.60;;;0.60;;
51485;SDS011;37565;51.352;6.412;2022-10-14T12:29:08;0.63;;;0.63;;
51485;SDS011;37565;51.352;6.412;2022-10-14T12:31:40;0.77;;;0.77;;
51485;SDS011;37565;51.352;6.412;2022-10-14T12:37:00;0.80;;;0.80;;
51485;SDS011;37565;51.352;6.412;2022-10-14T12:40:21;0.68;;;0.55;;
51485;SDS011;37565;51.352;6.412;2022-10-14T12:45:46;0.80;;;0.80;;
51485;SDS011;37565;51.352;6.412;2022-10-14T12:48:25;0.90;;;0.90;;
51485;SDS011;37565;51.352;6.412;2022-10-14T12:51:05;0.95;;;0.88;;
51485;SDS011;37565;51.352;6.412;2022-10-14T12:53:37;0.60;;;0.60;;
51485;SDS011;37565;51.352;6.412;2022-10-14T12:56:06;0.80;;;0.80;;
51485;SDS011;37565;51.352;6.412;2022-10-14T12:58:40;0.80;;;0.80;;
51485;SDS011;37565;51.352;6.412;2022-10-14T13:01:22;0.80;;;0.80;;
51485;SDS011;37565;51.352;6.412;2022-10-14T13:03:51;0.60;;;0.60;;
51485;SDS011;37565;51.352;6.412;2022-10-14T13:06:25;0.70;;;0.70;;
51485;SDS011;37565;51.352;6.412;2022-10-14T13:09:16;0.80;;;0.75;;
51485;SDS011;37565;51.352;6.412;2022-10-14T13:21:26;0.60;;;0.60;;
51485;SDS011;37565;51.352;6.412;2022-10-14T13:23:58;0.52;;;0.52;;
51485;SDS011;37565;51.352;6.412;2022-10-14T13:26:30;1.27;;;0.70;;
51485;SDS011;37565;51.352;6.412;2022-10-14T13:29:08;0.70;;;0.70;;
51485;SDS011;37565;51.352;6.412;2022-10-14T13:31:44;0.70;;;0.70;;
51485;SDS011;37565;51.352;6.412;2022-10-14T13:34:23;0.70;;;0.70;;
51485;SDS011;37565;51.352;6.412;2022-10-14T13:37:12;0.70;;;0.70;;
51485;SDS011;37565;51.352;6.412;2022-10-14T13:39:54;0.60;;;0.60;;
51485;SDS011;37565;51.352;6.412;2022-10-14T13:42:24;0.75;;;0.65;;
51485;SDS011;37565;51.352;6.412;2022-10-14T13:44:56;0.80;;;0.80;;
51485;SDS011;37565;51.352;6.412;2022-10-14T13:47:31;0.77;;;0.77;;
51485;SDS011;37565;51.352;6.412;2022-10-14T13:50:03;0.85;;;0.85;;
51485;SDS011;37565;51.352;6.412;2022-10-14T13:52:31;0.70;;;0.70;;
51485;SDS011;37565;51.352;6.412;2022-10-14T13:55:04;0.73;;;0.73;;
51485;SDS011;37565;51.352;6.412;2022-10-14T13:57:43;0.68;;;0.68;;
51485;SDS011;37565;51.352;6.412;2022-10-14T14:00:38;0.82;;;0.70;;
51485;SDS011;37565;51.352;6.412;2022-10-14T14:03:13;1.17;;;0.70;;
51485;SDS011;37565;51.352;6.412;2022-10-14T14:05:50;0.93;;;0.90;;
51485;SDS011;37565;51.352;6.412;2022-10-14T14:08:21;0.60;;;0.60;;
51485;SDS011;37565;51.352;6.412;2022-10-14T14:11:05;0.60;;;0.60;;
51485;SDS011;37565;51.352;6.412;2022-10-14T14:13:44;0.70;;;0.70;;
51485;SDS011;37565;51.352;6.412;2022-10-14T14:16:26;1.00;;;0.90;;
51485;SDS011;37565;51.352;6.412;2022-10-14T14:18:59;1.05;;;0.70;;
51485;SDS011;37565;51.352;6.412;2022-10-14T14:21:35;0.60;;;0.60;;
51485;SDS011;37565;51.352;6.412;2022-10-14T14:24:07;0.55;;;0.55;;
51485;SDS011;37565;51.352;6.412;2022-10-14T14:26:45;0.77;;;0.77;;
51485;SDS011;37565;51.352;6.412;2022-10-14T14:29:13;0.85;;;0.85;;
51485;SDS011;37565;51.352;6.412;2022-10-14T14:31:43;0.55;;;0.55;;
51485;SDS011;37565;51.352;6.412;2022-10-14T14:34:32;0.90;;;0.70;;
51485;SDS011;37565;51.352;6.412;2022-10-14T14:37:03;0.60;;;0.60;;
51485;SDS011;37565;51.352;6.412;2022-10-14T14:39:56;0.63;;;0.63;;
51485;SDS011;37565;51.352;6.412;2022-10-14T14:42:25;0.80;;;0.57;;
51485;SDS011;37565;51.352;6.412;2022-10-14T14:44:56;0.70;;;0.70;;
51485;SDS011;37565;51.352;6.412;2022-10-14T14:47:29;0.80;;;0.70;;
51485;SDS011;37565;51.352;6.412;2022-10-14T14:49:57;0.60;;;0.60;;
51485;SDS011;37565;51.352;6.412;2022-10-14T14:52:47;0.70;;;0.70;;
51485;SDS011;37565;51.352;6.412;2022-10-14T14:55:33;1.38;;;0.90;;
51485;SDS011;37565;51.352;6.412;2022-10-14T15:00:31;0.88;;;0.88;;
51485;SDS011;37565;51.352;6.412;2022-10-14T15:03:00;0.60;;;0.60;;
51485;SDS011;37565;51.352;6.412;2022-10-14T15:05:29;0.80;;;0.60;;
51485;SDS011;37565;51.352;6.412;2022-10-14T15:07:58;0.77;;;0.75;;
51485;SDS011;37565;51.352;6.412;2022-10-14T15:10:27;0.60;;;0.60;;
51485;SDS011;37565;51.352;6.412;2022-10-14T15:12:57;0.63;;;0.63;;
51485;SDS011;37565;51.352;6.412;2022-10-14T15:15:28;0.50;;;0.50;;
51485;SDS011;37565;51.352;6.412;2022-10-14T15:18:08;0.55;;;0.55;;
51485;SDS011;37565;51.352;6.412;2022-10-14T15:20:40;1.00;;;0.60;;
51485;SDS011;37565;51.352;6.412;2022-10-14T15:29:01;0.60;;;0.60;;
51485;SDS011;37565;51.352;6.412;2022-10-14T15:31:41;0.80;;;0.70;;
51485;SDS011;37565;51.352;6.412;2022-10-14T15:34:13;0.70;;;0.70;;
51485;SDS011;37565;51.352;6.412;2022-10-14T15:36:44;0.57;;;0.57;;
51485;SDS011;37565;51.352;6.412;2022-10-14T15:39:16;0.70;;;0.70;;
51485;SDS011;37565;51.352;6.412;2022-10-14T15:41:44;0.70;;;0.70;;
51485;SDS011;37565;51.352;6.412;2022-10-14T15:44:12;0.90;;;0.70;;
51485;SDS011;37565;51.352;6.412;2022-10-14T15:46:40;0.60;;;0.60;;
51485;SDS011;37565;51.352;6.412;2022-10-14T15:49:29;0.50;;;0.50;;
51485;SDS011;37565;51.352;6.412;2022-10-14T15:51:59;0.70;;;0.70;;
51485;SDS011;37565;51.352;6.412;2022-10-14T15:54:28;0.60;;;0.60;;
51485;SDS011;37565;51.352;6.412;2022-10-14T15:56:56;2.15;;;0.70;;
51485;SDS011;37565;51.352;6.412;2022-10-14T15:59:24;0.70;;;0.70;;